Terminal Aerodrome Forecast
Issued by NWS Kansas City/Pleasant Hill, MO

Home | Current Version | Previous Version | Text Only | Print | Product List | Glossary On
Versions: 1 2 3 4 5 6 7 8 9 10 11 12 13 14 15 16 17 18 19 20 21 22 23 24 25 26 27 28 29
667
FTUS43 KEAX 262323
TAFMCI
TAF
KMCI 262323Z 2700/2724 VRB03KT P6SM VCSH OVC018
     FM270100 05006KT 4SM -SHRA BR OVC015
     FM270800 02007KT 3SM -SHRA BR OVC007
     FM271500 01009KT P6SM OVC012
     FM272300 35008KT P6SM SCT025=

USA.gov is the U.S. government's official web portal to all federal, state and local government web resources and services.